createdAt,value
2018-04-24T00:00:55.529Z,8.00
2018-04-24T00:01:56.280Z,7.00
2018-04-24T00:02:57.013Z,8.00
2018-04-24T00:03:57.736Z,7.00
2018-04-24T00:04:58.455Z,7.00
2018-04-24T00:05:59.188Z,7.00
2018-04-24T00:06:59.912Z,7.00
2018-04-24T00:08:00.665Z,7.00
2018-04-24T00:09:01.424Z,7.00
2018-04-24T00:10:02.157Z,7.00
2018-04-24T00:11:02.874Z,8.00
2018-04-24T00:12:03.607Z,7.00
2018-04-24T00:13:04.330Z,9.00
2018-04-24T00:14:05.050Z,7.00
2018-04-24T00:15:05.767Z,7.00
2018-04-24T00:16:06.512Z,7.00
2018-04-24T00:17:07.236Z,7.00
2018-04-24T00:18:07.952Z,8.00
2018-04-24T00:19:08.686Z,7.00
2018-04-24T00:20:09.418Z,8.00
2018-04-24T00:21:10.182Z,8.00
2018-04-24T00:22:10.905Z,7.00
2018-04-24T00:23:11.631Z,7.00
2018-04-24T00:24:12.348Z,7.00
2018-04-24T00:25:13.070Z,9.00
2018-04-24T00:26:13.888Z,7.00
2018-04-24T00:27:14.535Z,8.00
2018-04-24T00:28:15.288Z,7.00
2018-04-24T00:29:16.013Z,9.00
2018-04-24T00:30:16.730Z,8.00
2018-04-24T00:31:17.457Z,9.00
2018-04-24T00:32:18.198Z,9.00
2018-04-24T00:33:18.938Z,7.00
2018-04-24T00:34:19.707Z,12.00
2018-04-24T00:35:20.396Z,8.00
2018-04-24T00:36:21.118Z,8.00
2018-04-24T00:37:21.840Z,8.00
2018-04-24T00:38:22.572Z,8.00
2018-04-24T00:39:23.293Z,8.00
2018-04-24T00:40:24.023Z,8.00
2018-04-24T00:41:24.751Z,7.00
2018-04-24T00:42:25.495Z,8.00
2018-04-24T00:43:26.217Z,8.00
2018-04-24T00:44:26.948Z,8.00
2018-04-24T00:45:27.714Z,8.00
2018-04-24T00:46:28.468Z,9.00
2018-04-24T00:47:29.189Z,8.00
2018-04-24T00:48:29.921Z,9.00
2018-04-24T00:49:30.675Z,9.00
2018-04-24T00:50:31.393Z,8.00
2018-04-24T00:51:32.151Z,8.00
2018-04-24T00:52:32.879Z,10.00
2018-04-24T00:53:33.602Z,10.00
2018-04-24T00:54:34.322Z,8.00
2018-04-24T00:55:35.069Z,10.00
2018-04-24T00:56:35.790Z,9.00
2018-04-24T00:57:36.512Z,7.00
2018-04-24T00:58:37.254Z,7.00
2018-04-24T00:59:37.975Z,12.00
2018-04-24T01:00:38.702Z,10.00
2018-04-24T01:01:39.416Z,9.00
2018-04-24T01:02:40.160Z,11.00
2018-04-24T01:03:40.892Z,11.00
2018-04-24T01:04:41.613Z,8.00
2018-04-24T01:05:42.362Z,10.00
2018-04-24T01:06:43.162Z,8.00
2018-04-24T01:07:43.852Z,8.00
2018-04-24T01:08:44.609Z,9.00
2018-04-24T01:09:45.329Z,10.00
2018-04-24T01:10:46.074Z,13.00
2018-04-24T01:11:46.796Z,11.00
2018-04-24T01:12:47.517Z,10.00
2018-04-24T01:13:48.238Z,9.00
2018-04-24T01:14:48.960Z,9.00
2018-04-24T01:15:49.694Z,10.00
2018-04-24T01:16:50.414Z,10.00
2018-04-24T01:17:51.145Z,8.00
2018-04-24T01:18:51.899Z,7.00
2018-04-24T01:19:52.631Z,8.00
2018-04-24T01:20:53.363Z,9.00
2018-04-24T01:21:54.094Z,8.00
2018-04-24T01:22:54.824Z,8.00
2018-04-24T01:23:55.544Z,9.00
2018-04-24T01:24:56.268Z,9.00
2018-04-24T01:25:56.987Z,9.00
2018-04-24T01:26:57.707Z,8.00
2018-04-24T01:27:58.429Z,9.00
2018-04-24T01:28:59.177Z,8.00
2018-04-24T01:29:59.924Z,8.00
2018-04-24T01:31:00.682Z,8.00
2018-04-24T01:32:01.399Z,8.00
2018-04-24T01:33:02.144Z,8.00
2018-04-24T01:34:02.875Z,9.00
2018-04-24T01:35:03.606Z,7.00
2018-04-24T01:36:04.372Z,9.00
2018-04-24T01:37:05.127Z,9.00
2018-04-24T01:38:05.860Z,7.00
2018-04-24T01:39:06.592Z,8.00
2018-04-24T01:40:07.312Z,9.00
2018-04-24T01:41:08.032Z,7.00
2018-04-24T01:42:08.752Z,7.00
2018-04-24T01:43:09.483Z,8.00
2018-04-24T01:44:10.204Z,7.00
2018-04-24T01:45:10.934Z,7.00
2018-04-24T01:46:11.655Z,8.00
2018-04-24T01:47:12.403Z,7.00
2018-04-24T01:48:13.107Z,8.00
2018-04-24T01:49:13.829Z,8.00
2018-04-24T01:50:14.551Z,8.00
2018-04-24T01:51:15.269Z,8.00
2018-04-24T01:52:16.011Z,9.00
2018-04-24T01:53:16.742Z,7.00
2018-04-24T01:54:17.462Z,8.00
2018-04-24T01:55:18.193Z,10.00
2018-04-24T01:56:18.913Z,8.00
2018-04-24T01:57:19.646Z,10.00
2018-04-24T01:58:20.368Z,8.00
2018-04-24T01:59:21.110Z,9.00
2018-04-24T02:00:21.852Z,8.00
2018-04-24T02:01:22.572Z,9.00
2018-04-24T02:02:23.304Z,8.00
2018-04-24T02:03:24.069Z,8.00
2018-04-24T02:04:24.824Z,9.00
2018-04-24T02:05:25.576Z,7.00
2018-04-24T02:06:26.301Z,8.00
2018-04-24T02:07:27.027Z,9.00
2018-04-24T02:08:27.754Z,12.00
2018-04-24T02:09:28.468Z,10.00
2018-04-24T02:10:29.201Z,8.00
2018-04-24T02:11:29.921Z,9.00
2018-04-24T02:12:30.641Z,9.00
2018-04-24T02:13:31.361Z,9.00
2018-04-24T02:14:32.081Z,10.00
2018-04-24T02:15:32.820Z,10.00
2018-04-24T02:16:33.544Z,13.00
2018-04-24T02:17:34.265Z,12.00
2018-04-24T02:18:34.989Z,11.00
2018-04-24T02:19:35.706Z,11.00
2018-04-24T02:20:36.460Z,11.00
2018-04-24T02:21:37.185Z,11.00
2018-04-24T02:22:37.974Z,9.00
2018-04-24T02:23:38.636Z,10.00
2018-04-24T02:24:39.358Z,11.00
2018-04-24T02:25:40.090Z,10.00
2018-04-24T02:26:40.813Z,10.00
2018-04-24T02:27:41.544Z,11.00
2018-04-24T02:28:42.266Z,11.00
2018-04-24T02:29:42.998Z,11.00
2018-04-24T02:30:43.730Z,11.00
2018-04-24T02:31:44.461Z,9.00
2018-04-24T02:32:45.184Z,10.00
2018-04-24T02:33:45.906Z,10.00
2018-04-24T02:34:46.650Z,10.00
2018-04-24T02:35:47.371Z,9.00
2018-04-24T02:36:48.133Z,10.00
2018-04-24T02:37:48.874Z,10.00
2018-04-24T02:38:49.592Z,8.00
2018-04-24T02:39:50.313Z,10.00
2018-04-24T02:40:51.054Z,10.00
2018-04-24T02:41:51.788Z,10.00
2018-04-24T02:42:52.521Z,10.00
2018-04-24T02:43:53.252Z,9.00
2018-04-24T02:44:53.971Z,9.00
2018-04-24T02:45:54.724Z,9.00
2018-04-24T02:46:55.446Z,10.00
2018-04-24T02:47:56.188Z,9.00
2018-04-24T02:48:56.923Z,7.00
2018-04-24T02:49:57.657Z,9.00
2018-04-24T02:50:58.372Z,10.00
2018-04-24T02:51:59.115Z,8.00
2018-04-24T02:52:59.833Z,7.00
2018-04-24T02:54:00.583Z,9.00
2018-04-24T02:55:01.331Z,8.00
2018-04-24T02:56:02.049Z,8.00
2018-04-24T02:57:02.781Z,7.00
2018-04-24T02:58:03.502Z,6.00
2018-04-24T02:59:04.221Z,7.00
2018-04-24T03:00:04.950Z,6.00
2018-04-24T03:01:05.670Z,5.00
2018-04-24T03:02:06.390Z,6.00
2018-04-24T03:03:07.110Z,7.00
2018-04-24T03:04:07.842Z,8.00
2018-04-24T03:05:08.595Z,6.00
2018-04-24T03:06:09.370Z,5.00
2018-04-24T03:07:10.088Z,7.00
2018-04-24T03:08:10.806Z,5.00
2018-04-24T03:09:11.531Z,6.00
2018-04-24T03:10:12.268Z,5.00
2018-04-24T03:11:12.987Z,5.00
2018-04-24T03:12:13.713Z,6.00
2018-04-24T03:13:14.424Z,4.00
2018-04-24T03:14:15.145Z,5.00
2018-04-24T03:15:15.877Z,5.00
2018-04-24T03:16:16.595Z,6.00
2018-04-24T03:17:17.315Z,6.00
2018-04-24T03:18:18.065Z,6.00
2018-04-24T03:19:18.786Z,4.00
2018-04-24T03:20:19.505Z,5.00
2018-04-24T03:21:20.225Z,5.00
2018-04-24T03:22:20.966Z,5.00
2018-04-24T03:23:21.684Z,4.00
2018-04-24T03:24:22.404Z,4.00
2018-04-24T03:25:23.145Z,5.00
2018-04-24T03:26:23.866Z,5.00
2018-04-24T03:27:24.592Z,6.00
2018-04-24T03:28:25.312Z,5.00
2018-04-24T03:29:26.045Z,5.00
2018-04-24T03:30:26.799Z,6.00
2018-04-24T03:31:27.518Z,5.00
2018-04-24T03:32:28.242Z,6.00
2018-04-24T03:33:28.957Z,4.00
2018-04-24T03:34:29.680Z,4.00
2018-04-24T03:35:30.421Z,5.00
2018-04-24T03:36:31.140Z,5.00
2018-04-24T03:37:31.858Z,5.00
2018-04-24T03:38:32.594Z,5.00
2018-04-24T03:39:33.340Z,5.00
2018-04-24T03:40:34.059Z,4.00
2018-04-24T03:41:34.778Z,5.00
2018-04-24T03:42:35.495Z,5.00
2018-04-24T03:43:36.216Z,6.00
2018-04-24T03:44:36.932Z,6.00
2018-04-24T03:45:37.661Z,4.00
2018-04-24T03:46:38.413Z,5.00
2018-04-24T03:47:39.133Z,4.00
2018-04-24T03:48:39.856Z,6.00
2018-04-24T03:49:40.582Z,5.00
2018-04-24T03:50:41.345Z,5.00
2018-04-24T03:51:42.064Z,5.00
2018-04-24T03:52:42.782Z,6.00
2018-04-24T03:53:43.512Z,5.00
2018-04-24T03:54:44.229Z,5.00
2018-04-24T03:55:44.952Z,4.00
2018-04-24T03:56:45.672Z,4.00
2018-04-24T03:57:46.403Z,4.00
2018-04-24T03:58:47.125Z,5.00
2018-04-24T03:59:47.864Z,4.00
2018-04-24T04:00:48.605Z,4.00
2018-04-24T04:01:49.317Z,6.00
2018-04-24T04:02:50.047Z,5.00
2018-04-24T04:03:50.768Z,4.00
2018-04-24T04:04:51.493Z,6.00
2018-04-24T04:05:52.208Z,4.00
2018-04-24T04:06:52.949Z,6.00
2018-04-24T04:07:53.670Z,5.00
2018-04-24T04:08:54.390Z,5.00
2018-04-24T04:09:55.109Z,7.00
2018-04-24T04:10:55.838Z,5.00
2018-04-24T04:11:56.558Z,5.00
2018-04-24T04:12:57.280Z,6.00
2018-04-24T04:13:57.999Z,5.00
2018-04-24T04:14:58.720Z,6.00
2018-04-24T04:15:59.485Z,5.00
2018-04-24T04:17:00.209Z,5.00
2018-04-24T04:18:00.997Z,4.00
2018-04-24T04:19:01.652Z,5.00
2018-04-24T04:20:02.374Z,5.00
2018-04-24T04:21:03.106Z,5.00
2018-04-24T04:22:03.828Z,5.00
2018-04-24T04:23:04.546Z,6.00
2018-04-24T04:24:05.287Z,5.00
2018-04-24T04:25:06.013Z,7.00
2018-04-24T04:26:06.730Z,5.00
2018-04-24T04:27:07.465Z,5.00
2018-04-24T04:28:08.232Z,7.00
2018-04-24T04:29:08.963Z,6.00
2018-04-24T04:30:09.716Z,5.00
2018-04-24T04:31:10.440Z,5.00
2018-04-24T04:32:11.194Z,5.00
2018-04-24T04:33:11.927Z,6.00
2018-04-24T04:34:12.651Z,6.00
2018-04-24T04:35:13.404Z,5.00
2018-04-24T04:36:14.129Z,6.00
2018-04-24T04:37:14.863Z,7.00
2018-04-24T04:38:15.598Z,5.00
2018-04-24T04:39:16.333Z,6.00
2018-04-24T04:40:17.057Z,7.00
2018-04-24T04:41:17.781Z,6.00
2018-04-24T04:42:18.505Z,6.00
2018-04-24T04:43:19.231Z,5.00
2018-04-24T04:44:19.970Z,6.00
2018-04-24T04:45:20.705Z,7.00
2018-04-24T04:46:21.441Z,5.00
2018-04-24T04:47:22.162Z,5.00
2018-04-24T04:48:22.885Z,5.00
2018-04-24T04:49:23.610Z,7.00
2018-04-24T04:50:24.355Z,8.00
2018-04-24T04:51:25.080Z,6.00
2018-04-24T04:52:25.807Z,6.00
2018-04-24T04:53:26.536Z,5.00
2018-04-24T04:54:27.271Z,5.00
2018-04-24T04:55:27.994Z,6.00
2018-04-24T04:56:28.739Z,5.00
2018-04-24T04:57:29.496Z,6.00
2018-04-24T04:58:30.219Z,5.00
2018-04-24T04:59:30.955Z,6.00
2018-04-24T05:00:31.718Z,4.00
2018-04-24T05:01:32.444Z,5.00
2018-04-24T05:02:33.166Z,5.00
2018-04-24T05:03:33.905Z,5.00
2018-04-24T05:04:34.624Z,5.00
2018-04-24T05:05:35.347Z,6.00
2018-04-24T05:06:36.079Z,5.00
2018-04-24T05:07:36.793Z,5.00
2018-04-24T05:08:37.514Z,5.00
2018-04-24T05:09:38.239Z,6.00
2018-04-24T05:10:38.964Z,6.00
2018-04-24T05:11:39.686Z,4.00
2018-04-24T05:12:40.419Z,5.00
2018-04-24T05:13:41.174Z,6.00
2018-04-24T05:14:41.907Z,6.00
2018-04-24T05:15:42.684Z,5.00
2018-04-24T05:16:43.365Z,5.00
2018-04-24T05:17:44.089Z,5.00
2018-04-24T05:18:44.837Z,5.00
2018-04-24T05:19:45.592Z,5.00
2018-04-24T05:20:46.317Z,5.00
2018-04-24T05:21:47.070Z,6.00
2018-04-24T05:22:47.811Z,5.00
2018-04-24T05:23:48.546Z,5.00
2018-04-24T05:24:49.277Z,5.00
2018-04-24T05:25:50.003Z,5.00
2018-04-24T05:26:50.760Z,6.00
2018-04-24T05:27:51.494Z,5.00
2018-04-24T05:28:52.218Z,6.00
2018-04-24T05:29:52.944Z,6.00
2018-04-24T05:30:53.671Z,6.00
2018-04-24T05:31:54.392Z,5.00
2018-04-24T05:32:55.117Z,4.00
2018-04-24T05:33:55.840Z,5.00
2018-04-24T05:34:56.586Z,4.00
2018-04-24T05:35:57.309Z,5.00
2018-04-24T05:36:58.042Z,4.00
2018-04-24T05:37:58.778Z,6.00
2018-04-24T05:38:59.500Z,6.00
2018-04-24T05:40:00.246Z,5.00
2018-04-24T05:41:00.975Z,4.00
2018-04-24T05:42:01.695Z,6.00
2018-04-24T05:43:02.441Z,7.00
2018-04-24T05:44:03.167Z,6.00
2018-04-24T05:45:03.906Z,5.00
2018-04-24T05:46:04.659Z,5.00
2018-04-24T05:47:05.385Z,6.00
2018-04-24T05:48:06.146Z,5.00
2018-04-24T05:49:06.902Z,6.00
2018-04-24T05:50:07.624Z,5.00
2018-04-24T05:51:08.356Z,5.00
2018-04-24T05:52:09.075Z,4.00
2018-04-24T05:53:09.812Z,7.00
2018-04-24T05:54:10.537Z,5.00
2018-04-24T05:55:11.296Z,7.00
2018-04-24T05:56:12.024Z,7.00
2018-04-24T05:57:12.758Z,6.00
2018-04-24T05:58:13.482Z,9.00
2018-04-24T05:59:14.207Z,7.00
2018-04-24T06:00:14.932Z,7.00
2018-04-24T06:01:15.654Z,9.00
2018-04-24T06:02:16.378Z,8.00
2018-04-24T06:03:17.104Z,9.00
2018-04-24T06:04:17.830Z,9.00
2018-04-24T06:05:18.564Z,5.00
2018-04-24T06:06:19.325Z,6.00
2018-04-24T06:07:20.051Z,5.00
2018-04-24T06:08:20.877Z,4.00
2018-04-24T06:09:21.499Z,6.00
2018-04-24T06:10:22.234Z,6.00
2018-04-24T06:11:22.970Z,5.00
2018-04-24T06:12:23.695Z,7.00
2018-04-24T06:13:24.455Z,5.00
2018-04-24T06:14:25.180Z,5.00
2018-04-24T06:15:25.919Z,4.00
2018-04-24T06:16:26.640Z,5.00
2018-04-24T06:17:27.378Z,5.00
2018-04-24T06:18:28.103Z,4.00
2018-04-24T06:19:28.846Z,5.00
2018-04-24T06:20:29.576Z,6.00
2018-04-24T06:21:30.313Z,6.00
2018-04-24T06:22:31.056Z,6.00
2018-04-24T06:23:31.763Z,6.00
2018-04-24T06:24:32.507Z,6.00
2018-04-24T06:25:33.233Z,6.00
2018-04-24T06:26:33.958Z,7.00
2018-04-24T06:27:34.682Z,6.00
2018-04-24T06:28:35.543Z,5.00
2018-04-24T06:29:36.144Z,5.00
2018-04-24T06:30:36.873Z,10.00
2018-04-24T06:31:37.615Z,9.00
2018-04-24T06:32:38.340Z,14.00
2018-04-24T06:33:39.078Z,7.00
2018-04-24T06:34:39.813Z,6.00
2018-04-24T06:35:40.534Z,4.00
2018-04-24T06:36:41.281Z,7.00
2018-04-24T06:37:42.004Z,6.00
2018-04-24T06:38:42.731Z,6.00
2018-04-24T06:39:43.467Z,8.00
2018-04-24T06:40:44.195Z,7.00
2018-04-24T06:41:44.920Z,6.00
2018-04-24T06:42:45.646Z,5.00
2018-04-24T06:43:46.382Z,5.00
2018-04-24T06:44:47.119Z,7.00
2018-04-24T06:45:47.879Z,7.00
2018-04-24T06:46:48.602Z,6.00
2018-04-24T06:47:49.443Z,7.00
2018-04-24T06:48:50.091Z,5.00
2018-04-24T06:49:50.816Z,6.00
2018-04-24T06:50:51.573Z,6.00
2018-04-24T06:51:52.333Z,7.00
2018-04-24T06:52:53.059Z,5.00
2018-04-24T06:53:53.838Z,6.00
2018-04-24T06:54:54.575Z,6.00
2018-04-24T06:55:55.260Z,8.00
2018-04-24T06:56:55.984Z,4.00
2018-04-24T06:57:56.713Z,5.00
2018-04-24T06:58:57.449Z,8.00
2018-04-24T06:59:58.209Z,6.00
2018-04-24T07:00:58.958Z,5.00
2018-04-24T07:01:59.686Z,5.00
2018-04-24T07:03:00.411Z,6.00
2018-04-24T07:04:01.146Z,5.00
2018-04-24T07:05:01.869Z,5.00
2018-04-24T07:06:02.629Z,6.00
2018-04-24T07:07:03.389Z,8.00
2018-04-24T07:08:04.149Z,7.00
2018-04-24T07:09:04.911Z,6.00
2018-04-24T07:10:05.635Z,5.00
2018-04-24T07:11:06.358Z,5.00
2018-04-24T07:12:07.105Z,6.00
2018-04-24T07:13:07.829Z,6.00
2018-04-24T07:14:08.552Z,6.00
2018-04-24T07:15:09.277Z,9.00
2018-04-24T07:16:10.013Z,6.00
2018-04-24T07:17:10.740Z,7.00
2018-04-24T07:18:11.466Z,9.00
2018-04-24T07:19:12.215Z,9.00
2018-04-24T07:20:12.941Z,7.00
2018-04-24T07:21:13.681Z,11.00
2018-04-24T07:22:14.441Z,7.00
2018-04-24T07:23:15.138Z,6.00
2018-04-24T07:24:15.873Z,9.00
2018-04-24T07:25:16.613Z,7.00
2018-04-24T07:26:17.338Z,8.00
2018-04-24T07:27:18.065Z,7.00
2018-04-24T07:28:18.802Z,5.00
2018-04-24T07:29:19.529Z,6.00
2018-04-24T07:30:20.266Z,7.00
2018-04-24T07:31:21.027Z,7.00
2018-04-24T07:32:21.754Z,5.00
2018-04-24T07:33:22.481Z,6.00
2018-04-24T07:34:23.230Z,6.00
2018-04-24T07:35:23.981Z,7.00
2018-04-24T07:36:24.706Z,6.00
2018-04-24T07:37:25.452Z,7.00
2018-04-24T07:38:26.188Z,6.00
2018-04-24T07:39:26.916Z,8.00
2018-04-24T07:40:27.644Z,7.00
2018-04-24T07:41:28.392Z,6.00
2018-04-24T07:42:29.139Z,7.00
2018-04-24T07:43:29.874Z,6.00
2018-04-24T07:44:30.611Z,8.00
2018-04-24T07:45:31.382Z,8.00
2018-04-24T07:46:32.160Z,6.00
2018-04-24T07:47:32.834Z,8.00
2018-04-24T07:48:33.575Z,6.00
2018-04-24T07:49:34.301Z,7.00
2018-04-24T07:50:35.029Z,6.00
2018-04-24T07:51:35.759Z,7.00
2018-04-24T07:52:36.509Z,7.00
2018-04-24T07:53:37.237Z,5.00
2018-04-24T07:54:37.992Z,8.00
2018-04-24T07:55:38.719Z,6.00
2018-04-24T07:56:39.468Z,6.00
2018-04-24T07:57:40.193Z,7.00
2018-04-24T07:58:40.932Z,7.00
2018-04-24T07:59:41.669Z,8.00
2018-04-24T08:00:42.396Z,9.00
2018-04-24T08:01:43.133Z,8.00
2018-04-24T08:02:43.861Z,8.00
2018-04-24T08:03:44.589Z,6.00
2018-04-24T08:04:45.314Z,7.00
2018-04-24T08:05:46.042Z,6.00
2018-04-24T08:06:46.779Z,9.00
2018-04-24T08:07:47.539Z,7.00
2018-04-24T08:08:48.266Z,8.00
2018-04-24T08:09:49.018Z,8.00
2018-04-24T08:10:49.768Z,8.00
2018-04-24T08:11:50.507Z,14.00
2018-04-24T08:12:51.268Z,7.00
2018-04-24T08:13:52.009Z,11.00
2018-04-24T08:14:52.734Z,10.00
2018-04-24T08:15:53.464Z,10.00
2018-04-24T08:16:54.202Z,8.00
2018-04-24T08:17:54.940Z,8.00
2018-04-24T08:18:55.678Z,10.00
2018-04-24T08:19:56.405Z,6.00
2018-04-24T08:20:57.136Z,8.00
2018-04-24T08:21:57.861Z,9.00
2018-04-24T08:22:58.647Z,7.00
2018-04-24T08:23:59.336Z,9.00
2018-04-24T08:25:00.067Z,9.00
2018-04-24T08:26:00.826Z,9.00
2018-04-24T08:27:01.585Z,7.00
2018-04-24T08:28:02.322Z,9.00
2018-04-24T08:29:03.059Z,8.00
2018-04-24T08:30:03.832Z,8.00
2018-04-24T08:31:04.571Z,10.00
2018-04-24T08:32:05.342Z,11.00
2018-04-24T08:33:06.071Z,8.00
2018-04-24T08:34:06.815Z,11.00
2018-04-24T08:35:07.554Z,8.00
2018-04-24T08:36:08.291Z,8.00
2018-04-24T08:37:09.033Z,10.00
2018-04-24T08:38:09.758Z,12.00
2018-04-24T08:39:10.506Z,9.00
2018-04-24T08:40:11.235Z,10.00
2018-04-24T08:41:11.986Z,7.00
2018-04-24T08:42:12.701Z,10.00
2018-04-24T08:43:13.428Z,9.00
2018-04-24T08:44:14.191Z,10.00
2018-04-24T08:45:14.919Z,9.00
2018-04-24T08:46:15.674Z,9.00
2018-04-24T08:47:16.384Z,9.00
2018-04-24T08:48:17.133Z,7.00
2018-04-24T08:49:17.869Z,9.00
2018-04-24T08:50:18.599Z,7.00
2018-04-24T08:51:19.335Z,8.00
2018-04-24T08:52:20.074Z,9.00
2018-04-24T08:53:20.836Z,8.00
2018-04-24T08:54:21.563Z,8.00
2018-04-24T08:55:22.290Z,8.00
2018-04-24T08:56:23.055Z,9.00
2018-04-24T08:57:23.742Z,8.00
2018-04-24T08:58:24.481Z,10.00
2018-04-24T08:59:25.213Z,10.00
2018-04-24T09:00:25.962Z,10.00
2018-04-24T09:01:26.712Z,8.00
2018-04-24T09:02:27.438Z,8.00
2018-04-24T09:03:28.166Z,11.00
2018-04-24T09:04:28.904Z,8.00
2018-04-24T09:05:29.632Z,9.00
2018-04-24T09:06:30.360Z,9.00
2018-04-24T09:07:31.090Z,10.00
2018-04-24T09:08:31.928Z,8.00
2018-04-24T09:09:32.597Z,8.00
2018-04-24T09:10:33.336Z,10.00
2018-04-24T09:11:34.110Z,9.00
2018-04-24T09:12:34.836Z,9.00
2018-04-24T09:13:35.576Z,9.00
2018-04-24T09:14:36.307Z,10.00
2018-04-24T09:15:37.038Z,10.00
2018-04-24T09:16:37.767Z,9.00
2018-04-24T09:17:38.507Z,10.00
2018-04-24T09:18:39.247Z,9.00
2018-04-24T09:19:39.971Z,8.00
2018-04-24T09:20:40.730Z,9.00
2018-04-24T09:21:41.469Z,10.00
2018-04-24T09:22:42.196Z,8.00
2018-04-24T09:23:42.939Z,10.00
2018-04-24T09:24:43.664Z,10.00
2018-04-24T09:25:44.394Z,10.00
2018-04-24T09:26:45.159Z,10.00
2018-04-24T09:27:45.890Z,10.00
2018-04-24T09:28:46.639Z,10.00
2018-04-24T09:29:47.387Z,8.00
2018-04-24T09:30:48.123Z,9.00
2018-04-24T09:31:48.894Z,9.00
2018-04-24T09:32:49.625Z,9.00
2018-04-24T09:33:50.424Z,8.00
2018-04-24T09:34:51.129Z,9.00
2018-04-24T09:35:51.872Z,11.00
2018-04-24T09:36:52.637Z,9.00
2018-04-24T09:37:53.370Z,10.00
2018-04-24T09:38:54.113Z,8.00
2018-04-24T09:39:54.843Z,11.00
2018-04-24T09:40:55.586Z,9.00
2018-04-24T09:41:56.360Z,9.00
2018-04-24T09:42:57.124Z,9.00
2018-04-24T09:43:57.903Z,10.00
2018-04-24T09:44:58.612Z,9.00
2018-04-24T09:45:59.447Z,8.00
2018-04-24T09:47:00.115Z,9.00
2018-04-24T09:48:00.855Z,10.00
2018-04-24T09:49:01.678Z,8.00
2018-04-24T09:50:02.326Z,8.00
2018-04-24T09:51:03.057Z,8.00
2018-04-24T09:52:03.809Z,9.00
2018-04-24T09:53:04.548Z,9.00
2018-04-24T09:54:05.293Z,7.00
2018-04-24T09:55:06.017Z,8.00
2018-04-24T09:56:06.745Z,8.00
2018-04-24T09:57:07.476Z,11.00
2018-04-24T09:58:08.225Z,7.00
2018-04-24T09:59:08.957Z,8.00
2018-04-24T10:00:09.695Z,8.00
2018-04-24T10:01:10.425Z,9.00
2018-04-24T10:02:11.189Z,8.00
2018-04-24T10:03:11.883Z,7.00
2018-04-24T10:04:12.614Z,8.00
2018-04-24T10:05:13.339Z,8.00
2018-04-24T10:06:14.078Z,8.00
2018-04-24T10:07:14.840Z,10.00
2018-04-24T10:08:15.591Z,7.00
2018-04-24T10:09:16.321Z,11.00
2018-04-24T10:10:17.046Z,9.00
2018-04-24T10:11:17.787Z,11.00
2018-04-24T10:12:18.518Z,9.00
2018-04-24T10:13:19.243Z,8.00
2018-04-24T10:14:19.974Z,8.00
2018-04-24T10:15:20.702Z,11.00
2018-04-24T10:16:21.444Z,10.00
2018-04-24T10:17:22.169Z,9.00
2018-04-24T10:18:22.918Z,9.00
2018-04-24T10:19:23.659Z,9.00
2018-04-24T10:20:24.398Z,9.00
2018-04-24T10:21:25.136Z,9.00
2018-04-24T10:22:25.901Z,9.00
2018-04-24T10:23:26.628Z,9.00
2018-04-24T10:24:27.382Z,10.00
2018-04-24T10:25:28.127Z,11.00
2018-04-24T10:26:28.860Z,9.00
2018-04-24T10:27:29.598Z,9.00
2018-04-24T10:28:30.328Z,10.00
2018-04-24T10:29:31.081Z,11.00
2018-04-24T10:30:31.812Z,11.00
2018-04-24T10:31:32.541Z,9.00
2018-04-24T10:32:33.272Z,10.00
2018-04-24T10:33:33.999Z,8.00
2018-04-24T10:34:34.730Z,9.00
2018-04-24T10:35:35.459Z,11.00
2018-04-24T10:36:36.200Z,12.00
2018-04-24T10:37:36.940Z,10.00
2018-04-24T10:38:37.701Z,10.00
2018-04-24T10:39:38.431Z,11.00
2018-04-24T10:40:39.165Z,10.00
2018-04-24T10:41:39.902Z,10.00
2018-04-24T10:42:40.627Z,9.00
2018-04-24T10:43:41.359Z,11.00
2018-04-24T10:44:42.087Z,10.00
2018-04-24T10:45:42.829Z,13.00
2018-04-24T10:46:43.556Z,10.00
2018-04-24T10:47:44.287Z,9.00
2018-04-24T10:48:45.037Z,9.00
2018-04-24T10:49:45.790Z,10.00
2018-04-24T10:50:46.518Z,11.00
2018-04-24T10:51:47.265Z,11.00
2018-04-24T10:52:47.992Z,11.00
2018-04-24T10:53:48.718Z,9.00
2018-04-24T10:54:49.449Z,10.00
2018-04-24T10:55:50.232Z,11.00
2018-04-24T10:56:50.922Z,12.00
2018-04-24T10:57:51.688Z,11.00
2018-04-24T10:58:52.453Z,12.00
2018-04-24T10:59:53.201Z,11.00
2018-04-24T11:00:53.958Z,13.00
2018-04-24T11:01:54.744Z,11.00
2018-04-24T11:02:55.468Z,11.00
2018-04-24T11:03:56.233Z,14.00
2018-04-24T11:04:56.965Z,12.00
2018-04-24T11:05:57.693Z,12.00
2018-04-24T11:06:58.433Z,11.00
2018-04-24T11:07:59.205Z,10.00
2018-04-24T11:08:59.930Z,12.00
2018-04-24T11:10:00.696Z,12.00
2018-04-24T11:11:01.458Z,13.00
2018-04-24T11:12:02.222Z,12.00
2018-04-24T11:13:02.993Z,15.00
2018-04-24T11:14:03.745Z,13.00
2018-04-24T11:15:04.475Z,13.00
2018-04-24T11:16:05.208Z,13.00
2018-04-24T11:17:05.973Z,12.00
2018-04-24T11:18:06.673Z,11.00
2018-04-24T11:19:07.423Z,15.00
2018-04-24T11:20:08.155Z,16.00
2018-04-24T11:21:08.919Z,13.00
2018-04-24T11:22:09.650Z,15.00
2018-04-24T11:23:10.392Z,11.00
2018-04-24T11:24:11.122Z,13.00
2018-04-24T11:25:11.852Z,12.00
2018-04-24T11:26:12.595Z,11.00
2018-04-24T11:27:13.360Z,13.00
2018-04-24T11:28:14.093Z,13.00
2018-04-24T11:29:14.825Z,13.00
2018-04-24T11:30:15.616Z,11.00
2018-04-24T11:31:16.309Z,14.00
2018-04-24T11:32:17.042Z,12.00
2018-04-24T11:33:17.775Z,11.00
2018-04-24T11:34:18.554Z,11.00
2018-04-24T11:35:19.262Z,14.00
2018-04-24T11:36:20.005Z,12.00
2018-04-24T11:37:20.771Z,14.00
2018-04-24T11:38:21.502Z,12.00
2018-04-24T11:39:22.234Z,12.00
2018-04-24T11:40:22.979Z,15.00
2018-04-24T11:41:23.807Z,12.00
2018-04-24T11:42:24.484Z,14.00
2018-04-24T11:43:25.215Z,15.00
2018-04-24T11:44:25.946Z,16.00
2018-04-24T11:45:26.676Z,15.00
2018-04-24T11:46:27.408Z,15.00
2018-04-24T11:47:28.142Z,16.00
2018-04-24T11:48:28.876Z,17.00
2018-04-24T11:49:29.621Z,17.00
2018-04-24T11:50:30.347Z,16.00
2018-04-24T11:51:31.081Z,14.00
2018-04-24T11:52:31.808Z,15.00
2018-04-24T11:53:32.539Z,14.00
2018-04-24T11:54:33.281Z,14.00
2018-04-24T11:55:34.013Z,17.00
2018-04-24T11:56:34.753Z,16.00
2018-04-24T11:57:35.493Z,13.00
2018-04-24T11:58:36.235Z,16.00
2018-04-24T11:59:36.981Z,15.00
2018-04-24T12:00:37.742Z,17.00
2018-04-24T12:01:38.470Z,16.00
2018-04-24T12:02:39.284Z,15.00
2018-04-24T12:03:39.971Z,17.00
2018-04-24T12:04:40.724Z,16.00
2018-04-24T12:05:41.472Z,15.00
2018-04-24T12:06:42.203Z,17.00
2018-04-24T12:07:42.945Z,15.00
2018-04-24T12:08:43.673Z,17.00
2018-04-24T12:09:44.403Z,16.00
2018-04-24T12:10:45.156Z,19.00
2018-04-24T12:11:45.898Z,17.00
2018-04-24T12:12:46.640Z,17.00
2018-04-24T12:13:47.372Z,15.00
2018-04-24T12:14:48.110Z,14.00
2018-04-24T12:15:48.914Z,17.00
2018-04-24T12:16:49.569Z,18.00
2018-04-24T12:17:50.299Z,16.00
2018-04-24T12:18:51.043Z,16.00
2018-04-24T12:19:51.784Z,15.00
2018-04-24T12:20:52.514Z,15.00
2018-04-24T12:21:53.266Z,16.00
2018-04-24T12:22:53.998Z,15.00
2018-04-24T12:23:54.727Z,15.00
2018-04-24T12:24:55.455Z,17.00
2018-04-24T12:25:56.188Z,16.00
2018-04-24T12:26:56.920Z,15.00
2018-04-24T12:27:57.652Z,17.00
2018-04-24T12:28:58.384Z,18.00
2018-04-24T12:29:59.114Z,15.00
2018-04-24T12:30:59.842Z,15.00
2018-04-24T12:32:00.584Z,16.00
2018-04-24T12:33:01.322Z,16.00
2018-04-24T12:34:02.055Z,16.00
2018-04-24T12:35:02.800Z,16.00
2018-04-24T12:36:03.574Z,17.00
2018-04-24T12:37:04.312Z,16.00
2018-04-24T12:38:05.043Z,15.00
2018-04-24T12:39:05.784Z,16.00
2018-04-24T12:40:06.514Z,14.00
2018-04-24T12:41:07.243Z,14.00
2018-04-24T12:42:07.994Z,14.00
2018-04-24T12:43:08.747Z,14.00
2018-04-24T12:44:09.477Z,18.00
2018-04-24T12:45:10.311Z,15.00
2018-04-24T12:46:11.000Z,16.00
2018-04-24T12:47:11.732Z,15.00
2018-04-24T12:48:12.466Z,14.00
2018-04-24T12:49:13.232Z,13.00
2018-04-24T12:50:13.955Z,13.00
2018-04-24T12:51:14.685Z,11.00
2018-04-24T12:52:15.412Z,13.00
2018-04-24T12:53:16.155Z,15.00
2018-04-24T12:54:16.882Z,14.00
2018-04-24T12:55:17.625Z,11.00
2018-04-24T12:56:18.354Z,15.00
2018-04-24T12:57:19.085Z,14.00
2018-04-24T12:58:19.814Z,14.00
2018-04-24T12:59:20.544Z,13.00
2018-04-24T13:00:21.306Z,14.00
2018-04-24T13:01:22.035Z,17.00
2018-04-24T13:02:22.780Z,18.00
2018-04-24T13:03:23.542Z,14.00
2018-04-24T13:04:24.268Z,16.00
2018-04-24T13:05:25.011Z,13.00
2018-04-24T13:06:25.751Z,16.00
2018-04-24T13:07:26.480Z,17.00
2018-04-24T13:08:27.220Z,13.00
2018-04-24T13:09:27.951Z,14.00
2018-04-24T13:10:28.713Z,19.00
2018-04-24T13:11:29.445Z,16.00
2018-04-24T13:12:30.172Z,15.00
2018-04-24T13:13:30.902Z,14.00
2018-04-24T13:14:31.633Z,15.00
2018-04-24T13:15:32.372Z,15.00
2018-04-24T13:16:33.117Z,16.00
2018-04-24T13:17:33.855Z,15.00
2018-04-24T13:18:34.618Z,17.00
2018-04-24T13:19:35.324Z,14.00